Pequabuck, CT (06781)

3:48 PM EDT on July 26, 2017 (GMT -0400)
Rt 72 Near Harwinton, Terryville, CT | | Change Station

Elev 676 ft 41.70 °N, 73.01 °W | Updated 2 seconds ago

Partly Cloudy
Partly Cloudy
76.0 °F
Feels Like 78 °F
N
3.0
Wind Variable Wind from South
Gusts 7.0 mph

Today
High -- | Low -- °F
--% Chance of Precip.
Yesterday
High -- | Low -- °F
Precip. -- in
Pressure 30.17 in
Visibility 10.0 miles
Clouds Few 4500 ft
Mostly Cloudy 5500 ft
Heat Index 78 °F
Dew Point 56 °F
Humidity 50%
Rainfall 0.00 in
Snow Depth Not available.
5:40 AM 8:15 PM
Waxing Crescent, 15% visible
METAR KMMK 261853Z AUTO 21005KT 10SM FEW045 BKN055 24/15 A3018 RMK AO2 SLP217 T02390150 TSNO
Pressure 30.17 in
Visibility 10.0 miles
Clouds Few 4500 ft
Mostly Cloudy 5500 ft
Heat Index 78 °F
Dew Point 56 °F
Humidity 50%
Rainfall 0.00 in
Snow Depth Not available.
5:40 AM 8:15 PM
Waxing Crescent, 15% visible
METAR KMMK 261853Z AUTO 21005KT 10SM FEW045 BKN055 24/15 A3018 RMK AO2 SLP217 T02390150 TSNO

Get Severe Weather Alerts

Thanks for signing up!

Be on the lookout for a verification email in your inbox.

You'll start receiving the daily forecast at 6 AM.

×

10-Day Weather Forecast

Almanac

Astronomy

Jul. 26, 2017 Rise Set
Actual Time
Civil Twilight
Nautical Twilight
Astronomical Twilight
Moon
Length of Visible Light
Length of Day
Tomorrow will be .
, % of the Moon is Illuminated

Today's Extremes

State Highs State Lows

Community

WunderPhotos

Category 6

Welcome to Category 6. This is the collective home for Weather Underground's featured writeups by Dr. Jeff Masters (right), Bob Henson (left), Chris Burt, and other regular contributors.

Nearby

Air Quality

  Air Quality AQ Index Pollutant
Not available.

Snow Depth

Station Depth Elevation

Earthquake Activity

City Distance Mag. Time & Date
Minimum magnitude displayed is 2.5.

Coastal Water Temperatures

Place Temperature

Stations

Nearby Weather Stations

Station Location Temp. Windchill Dew Point Humidity Wind Precip. Elev Updated Type
                   

Watches & Warnings

There are currently no watches in effect.